sensor_id;sensor_type;location;lat;lon;timestamp;P1;durP1;ratioP1;P2;durP2;ratioP2
13269;SDS011;6703;51.994;7.570;2023-03-01T00:00:42;11.35;;;5.80;;
13269;SDS011;6703;51.994;7.570;2023-03-01T00:03:12;18.38;;;6.50;;
13269;SDS011;6703;51.994;7.570;2023-03-01T00:05:43;14.45;;;6.80;;
13269;SDS011;6703;51.994;7.570;2023-03-01T00:08:11;13.45;;;6.45;;
13269;SDS011;6703;51.994;7.570;2023-03-01T00:10:39;15.40;;;6.30;;
13269;SDS011;6703;51.994;7.570;2023-03-01T00:13:07;15.77;;;6.82;;
13269;SDS011;6703;51.994;7.570;2023-03-01T00:15:39;13.25;;;6.40;;
13269;SDS011;6703;51.994;7.570;2023-03-01T00:18:07;14.85;;;6.35;;
13269;SDS011;6703;51.994;7.570;2023-03-01T00:20:36;18.95;;;6.55;;
13269;SDS011;6703;51.994;7.570;2023-03-01T00:23:04;15.70;;;6.30;;
13269;SDS011;6703;51.994;7.570;2023-03-01T00:25:32;12.70;;;6.00;;
13269;SDS011;6703;51.994;7.570;2023-03-01T00:27:59;14.68;;;6.05;;
13269;SDS011;6703;51.994;7.570;2023-03-01T00:30:27;13.80;;;5.70;;
13269;SDS011;6703;51.994;7.570;2023-03-01T00:32:56;15.70;;;6.73;;
13269;SDS011;6703;51.994;7.570;2023-03-01T00:35:24;15.20;;;6.30;;
13269;SDS011;6703;51.994;7.570;2023-03-01T00:37:52;16.85;;;6.43;;
13269;SDS011;6703;51.994;7.570;2023-03-01T00:40:23;16.52;;;6.25;;
13269;SDS011;6703;51.994;7.570;2023-03-01T00:42:51;13.77;;;5.80;;
13269;SDS011;6703;51.994;7.570;2023-03-01T00:45:19;13.95;;;6.68;;
13269;SDS011;6703;51.994;7.570;2023-03-01T00:47:47;13.15;;;6.30;;
13269;SDS011;6703;51.994;7.570;2023-03-01T00:50:17;13.55;;;5.93;;
13269;SDS011;6703;51.994;7.570;2023-03-01T00:52:45;14.68;;;6.13;;
13269;SDS011;6703;51.994;7.570;2023-03-01T00:55:13;17.67;;;6.18;;
13269;SDS011;6703;51.994;7.570;2023-03-01T00:57:41;14.10;;;6.57;;
13269;SDS011;6703;51.994;7.570;2023-03-01T01:00:10;13.83;;;5.90;;
13269;SDS011;6703;51.994;7.570;2023-03-01T01:02:38;16.80;;;6.28;;
13269;SDS011;6703;51.994;7.570;2023-03-01T01:05:06;13.55;;;6.25;;
13269;SDS011;6703;51.994;7.570;2023-03-01T01:07:36;14.13;;;6.03;;
13269;SDS011;6703;51.994;7.570;2023-03-01T01:10:04;11.65;;;5.95;;
13269;SDS011;6703;51.994;7.570;2023-03-01T01:12:32;14.40;;;6.38;;
13269;SDS011;6703;51.994;7.570;2023-03-01T01:15:00;11.77;;;5.83;;
13269;SDS011;6703;51.994;7.570;2023-03-01T01:17:28;19.05;;;7.20;;
13269;SDS011;6703;51.994;7.570;2023-03-01T01:19:56;15.40;;;7.05;;
13269;SDS011;6703;51.994;7.570;2023-03-01T01:22:23;15.95;;;6.75;;
13269;SDS011;6703;51.994;7.570;2023-03-01T01:24:52;17.40;;;7.35;;
13269;SDS011;6703;51.994;7.570;2023-03-01T01:27:20;15.45;;;7.13;;
13269;SDS011;6703;51.994;7.570;2023-03-01T01:29:48;16.17;;;7.10;;
13269;SDS011;6703;51.994;7.570;2023-03-01T01:32:16;19.23;;;7.53;;
13269;SDS011;6703;51.994;7.570;2023-03-01T01:34:43;19.15;;;8.05;;
13269;SDS011;6703;51.994;7.570;2023-03-01T01:37:12;20.55;;;7.57;;
13269;SDS011;6703;51.994;7.570;2023-03-01T01:39:40;16.88;;;7.47;;
13269;SDS011;6703;51.994;7.570;2023-03-01T01:42:11;18.98;;;7.75;;
13269;SDS011;6703;51.994;7.570;2023-03-01T01:44:40;18.38;;;7.90;;
13269;SDS011;6703;51.994;7.570;2023-03-01T01:47:10;29.30;;;9.35;;
13269;SDS011;6703;51.994;7.570;2023-03-01T01:49:41;25.10;;;8.90;;
13269;SDS011;6703;51.994;7.570;2023-03-01T01:52:11;22.35;;;8.73;;
13269;SDS011;6703;51.994;7.570;2023-03-01T01:54:42;25.07;;;9.03;;
13269;SDS011;6703;51.994;7.570;2023-03-01T01:57:14;22.35;;;8.38;;
13269;SDS011;6703;51.994;7.570;2023-03-01T01:59:45;19.42;;;7.38;;
13269;SDS011;6703;51.994;7.570;2023-03-01T02:02:15;19.23;;;7.53;;
13269;SDS011;6703;51.994;7.570;2023-03-01T02:04:43;18.15;;;7.10;;
13269;SDS011;6703;51.994;7.570;2023-03-01T02:07:13;19.20;;;7.33;;
13269;SDS011;6703;51.994;7.570;2023-03-01T02:09:43;17.98;;;7.80;;
13269;SDS011;6703;51.994;7.570;2023-03-01T02:12:14;20.70;;;7.95;;
13269;SDS011;6703;51.994;7.570;2023-03-01T02:14:44;16.45;;;6.82;;
13269;SDS011;6703;51.994;7.570;2023-03-01T02:17:12;16.63;;;6.88;;
13269;SDS011;6703;51.994;7.570;2023-03-01T02:19:43;17.35;;;7.57;;
13269;SDS011;6703;51.994;7.570;2023-03-01T02:22:18;17.10;;;6.70;;
13269;SDS011;6703;51.994;7.570;2023-03-01T02:24:52;15.43;;;7.15;;
13269;SDS011;6703;51.994;7.570;2023-03-01T02:27:29;15.70;;;6.57;;
13269;SDS011;6703;51.994;7.570;2023-03-01T02:30:04;16.42;;;6.53;;
13269;SDS011;6703;51.994;7.570;2023-03-01T02:32:34;17.45;;;7.30;;
13269;SDS011;6703;51.994;7.570;2023-03-01T02:35:01;20.60;;;7.70;;
13269;SDS011;6703;51.994;7.570;2023-03-01T02:37:33;17.23;;;7.10;;
13269;SDS011;6703;51.994;7.570;2023-03-01T02:40:04;20.58;;;7.38;;
13269;SDS011;6703;51.994;7.570;2023-03-01T02:42:40;23.58;;;7.43;;
13269;SDS011;6703;51.994;7.570;2023-03-01T02:45:12;21.48;;;7.55;;
13269;SDS011;6703;51.994;7.570;2023-03-01T02:47:40;15.60;;;6.88;;
13269;SDS011;6703;51.994;7.570;2023-03-01T02:50:13;18.77;;;7.90;;
13269;SDS011;6703;51.994;7.570;2023-03-01T02:52:52;17.98;;;7.57;;
13269;SDS011;6703;51.994;7.570;2023-03-01T02:55:26;19.65;;;7.88;;
13269;SDS011;6703;51.994;7.570;2023-03-01T02:57:54;20.60;;;7.63;;
13269;SDS011;6703;51.994;7.570;2023-03-01T03:00:24;17.23;;;7.35;;
13269;SDS011;6703;51.994;7.570;2023-03-01T03:02:54;18.35;;;7.25;;
13269;SDS011;6703;51.994;7.570;2023-03-01T03:05:23;16.73;;;7.20;;
13269;SDS011;6703;51.994;7.570;2023-03-01T03:07:53;17.67;;;7.70;;
13269;SDS011;6703;51.994;7.570;2023-03-01T03:10:22;16.95;;;6.68;;
13269;SDS011;6703;51.994;7.570;2023-03-01T03:12:51;16.75;;;7.10;;
13269;SDS011;6703;51.994;7.570;2023-03-01T03:15:20;16.00;;;6.53;;
13269;SDS011;6703;51.994;7.570;2023-03-01T03:17:50;15.27;;;6.72;;
13269;SDS011;6703;51.994;7.570;2023-03-01T03:20:19;21.20;;;7.83;;
13269;SDS011;6703;51.994;7.570;2023-03-01T03:22:49;16.90;;;7.25;;
13269;SDS011;6703;51.994;7.570;2023-03-01T03:25:18;15.48;;;7.03;;
13269;SDS011;6703;51.994;7.570;2023-03-01T03:27:47;18.60;;;7.07;;
13269;SDS011;6703;51.994;7.570;2023-03-01T03:30:23;16.90;;;7.40;;
13269;SDS011;6703;51.994;7.570;2023-03-01T03:32:54;19.77;;;7.47;;
13269;SDS011;6703;51.994;7.570;2023-03-01T03:35:24;15.18;;;6.60;;
13269;SDS011;6703;51.994;7.570;2023-03-01T03:37:55;14.93;;;7.32;;
13269;SDS011;6703;51.994;7.570;2023-03-01T03:40:30;15.43;;;6.70;;
13269;SDS011;6703;51.994;7.570;2023-03-01T03:42:59;13.82;;;6.75;;
13269;SDS011;6703;51.994;7.570;2023-03-01T03:45:27;17.38;;;7.40;;
13269;SDS011;6703;51.994;7.570;2023-03-01T03:47:56;17.52;;;7.30;;
13269;SDS011;6703;51.994;7.570;2023-03-01T03:50:23;19.33;;;7.38;;
13269;SDS011;6703;51.994;7.570;2023-03-01T03:52:51;21.95;;;8.50;;
13269;SDS011;6703;51.994;7.570;2023-03-01T03:55:19;19.27;;;7.37;;
13269;SDS011;6703;51.994;7.570;2023-03-01T03:57:47;16.73;;;7.68;;
13269;SDS011;6703;51.994;7.570;2023-03-01T04:00:18;25.88;;;8.90;;
13269;SDS011;6703;51.994;7.570;2023-03-01T04:02:48;20.98;;;7.93;;
13269;SDS011;6703;51.994;7.570;2023-03-01T04:05:17;19.13;;;7.80;;
13269;SDS011;6703;51.994;7.570;2023-03-01T04:07:46;18.47;;;8.00;;
13269;SDS011;6703;51.994;7.570;2023-03-01T04:10:14;21.05;;;7.78;;
13269;SDS011;6703;51.994;7.570;2023-03-01T04:12:43;18.77;;;7.95;;
13269;SDS011;6703;51.994;7.570;2023-03-01T04:15:11;16.63;;;7.72;;
13269;SDS011;6703;51.994;7.570;2023-03-01T04:17:40;17.98;;;7.60;;
13269;SDS011;6703;51.994;7.570;2023-03-01T04:20:08;17.25;;;7.40;;
13269;SDS011;6703;51.994;7.570;2023-03-01T04:22:39;19.48;;;8.10;;
13269;SDS011;6703;51.994;7.570;2023-03-01T04:25:07;15.25;;;7.00;;
13269;SDS011;6703;51.994;7.570;2023-03-01T04:27:40;15.85;;;7.45;;
13269;SDS011;6703;51.994;7.570;2023-03-01T04:30:09;15.88;;;7.13;;
13269;SDS011;6703;51.994;7.570;2023-03-01T04:32:38;16.10;;;7.18;;
13269;SDS011;6703;51.994;7.570;2023-03-01T04:35:06;18.05;;;7.22;;
13269;SDS011;6703;51.994;7.570;2023-03-01T04:37:34;17.17;;;7.82;;
13269;SDS011;6703;51.994;7.570;2023-03-01T04:40:04;15.65;;;7.22;;
13269;SDS011;6703;51.994;7.570;2023-03-01T04:42:42;17.75;;;7.68;;
13269;SDS011;6703;51.994;7.570;2023-03-01T04:45:10;15.27;;;7.15;;
13269;SDS011;6703;51.994;7.570;2023-03-01T04:47:40;18.67;;;7.35;;
13269;SDS011;6703;51.994;7.570;2023-03-01T04:50:09;16.35;;;6.88;;
13269;SDS011;6703;51.994;7.570;2023-03-01T04:52:38;13.90;;;6.72;;
13269;SDS011;6703;51.994;7.570;2023-03-01T04:55:08;13.52;;;6.35;;
13269;SDS011;6703;51.994;7.570;2023-03-01T04:57:36;17.77;;;7.30;;
13269;SDS011;6703;51.994;7.570;2023-03-01T05:00:05;16.10;;;7.70;;
13269;SDS011;6703;51.994;7.570;2023-03-01T05:02:47;16.02;;;7.70;;
13269;SDS011;6703;51.994;7.570;2023-03-01T05:05:26;17.38;;;7.40;;
13269;SDS011;6703;51.994;7.570;2023-03-01T05:07:55;16.27;;;7.57;;
13269;SDS011;6703;51.994;7.570;2023-03-01T05:10:28;16.23;;;7.80;;
13269;SDS011;6703;51.994;7.570;2023-03-01T05:12:59;15.85;;;7.50;;
13269;SDS011;6703;51.994;7.570;2023-03-01T05:15:27;16.08;;;7.57;;
13269;SDS011;6703;51.994;7.570;2023-03-01T05:17:56;19.77;;;8.00;;
13269;SDS011;6703;51.994;7.570;2023-03-01T05:20:26;19.67;;;7.93;;
13269;SDS011;6703;51.994;7.570;2023-03-01T05:22:55;21.50;;;7.38;;
13269;SDS011;6703;51.994;7.570;2023-03-01T05:25:24;15.43;;;6.90;;
13269;SDS011;6703;51.994;7.570;2023-03-01T05:27:54;21.73;;;7.80;;
13269;SDS011;6703;51.994;7.570;2023-03-01T05:30:22;19.20;;;8.10;;
13269;SDS011;6703;51.994;7.570;2023-03-01T05:32:50;19.23;;;7.25;;
13269;SDS011;6703;51.994;7.570;2023-03-01T05:35:22;19.92;;;7.55;;
13269;SDS011;6703;51.994;7.570;2023-03-01T05:37:50;24.20;;;7.97;;
13269;SDS011;6703;51.994;7.570;2023-03-01T05:40:19;17.88;;;8.20;;
13269;SDS011;6703;51.994;7.570;2023-03-01T05:42:48;20.23;;;8.23;;
13269;SDS011;6703;51.994;7.570;2023-03-01T05:45:18;17.70;;;7.95;;
13269;SDS011;6703;51.994;7.570;2023-03-01T05:47:46;18.92;;;8.68;;
13269;SDS011;6703;51.994;7.570;2023-03-01T05:50:16;21.97;;;8.70;;
13269;SDS011;6703;51.994;7.570;2023-03-01T05:52:46;26.05;;;9.65;;
13269;SDS011;6703;51.994;7.570;2023-03-01T05:55:15;22.30;;;9.07;;
13269;SDS011;6703;51.994;7.570;2023-03-01T05:57:43;23.33;;;9.20;;
13269;SDS011;6703;51.994;7.570;2023-03-01T06:00:11;19.63;;;9.00;;
13269;SDS011;6703;51.994;7.570;2023-03-01T06:02:41;20.90;;;9.77;;
13269;SDS011;6703;51.994;7.570;2023-03-01T06:05:10;26.80;;;10.20;;
13269;SDS011;6703;51.994;7.570;2023-03-01T06:07:39;26.13;;;9.23;;
13269;SDS011;6703;51.994;7.570;2023-03-01T06:10:09;27.40;;;9.85;;
13269;SDS011;6703;51.994;7.570;2023-03-01T06:12:38;21.77;;;9.27;;
13269;SDS011;6703;51.994;7.570;2023-03-01T06:15:07;23.20;;;9.13;;
13269;SDS011;6703;51.994;7.570;2023-03-01T06:17:37;22.33;;;9.10;;
13269;SDS011;6703;51.994;7.570;2023-03-01T06:20:09;22.98;;;9.27;;
13269;SDS011;6703;51.994;7.570;2023-03-01T06:22:38;22.40;;;8.55;;
13269;SDS011;6703;51.994;7.570;2023-03-01T06:25:06;20.60;;;9.03;;
13269;SDS011;6703;51.994;7.570;2023-03-01T06:27:35;23.65;;;8.70;;
13269;SDS011;6703;51.994;7.570;2023-03-01T06:30:03;23.58;;;9.05;;
13269;SDS011;6703;51.994;7.570;2023-03-01T06:32:33;29.85;;;9.25;;
13269;SDS011;6703;51.994;7.570;2023-03-01T06:35:00;20.42;;;9.18;;
13269;SDS011;6703;51.994;7.570;2023-03-01T06:37:29;24.10;;;9.07;;
13269;SDS011;6703;51.994;7.570;2023-03-01T06:39:57;25.95;;;9.45;;
13269;SDS011;6703;51.994;7.570;2023-03-01T06:42:25;23.25;;;9.63;;
13269;SDS011;6703;51.994;7.570;2023-03-01T06:44:53;23.55;;;9.23;;
13269;SDS011;6703;51.994;7.570;2023-03-01T06:47:20;24.20;;;9.57;;
13269;SDS011;6703;51.994;7.570;2023-03-01T06:49:48;25.55;;;9.77;;
13269;SDS011;6703;51.994;7.570;2023-03-01T06:52:16;19.13;;;9.83;;
13269;SDS011;6703;51.994;7.570;2023-03-01T06:54:45;24.27;;;9.77;;
13269;SDS011;6703;51.994;7.570;2023-03-01T06:57:12;23.10;;;9.50;;
13269;SDS011;6703;51.994;7.570;2023-03-01T06:59:40;24.63;;;9.40;;
13269;SDS011;6703;51.994;7.570;2023-03-01T07:02:09;21.85;;;9.90;;
13269;SDS011;6703;51.994;7.570;2023-03-01T07:04:37;22.07;;;9.07;;
13269;SDS011;6703;51.994;7.570;2023-03-01T07:07:05;22.08;;;8.70;;
13269;SDS011;6703;51.994;7.570;2023-03-01T07:09:32;22.93;;;8.77;;
13269;SDS011;6703;51.994;7.570;2023-03-01T07:12:02;22.92;;;9.15;;
13269;SDS011;6703;51.994;7.570;2023-03-01T07:14:30;22.77;;;8.85;;
13269;SDS011;6703;51.994;7.570;2023-03-01T07:16:58;24.25;;;9.55;;
13269;SDS011;6703;51.994;7.570;2023-03-01T07:19:25;19.33;;;8.77;;
13269;SDS011;6703;51.994;7.570;2023-03-01T07:21:53;24.70;;;9.37;;
13269;SDS011;6703;51.994;7.570;2023-03-01T07:24:22;22.95;;;9.75;;
13269;SDS011;6703;51.994;7.570;2023-03-01T07:26:49;23.47;;;9.93;;
13269;SDS011;6703;51.994;7.570;2023-03-01T07:29:19;23.77;;;10.30;;
13269;SDS011;6703;51.994;7.570;2023-03-01T07:31:47;23.88;;;10.27;;
13269;SDS011;6703;51.994;7.570;2023-03-01T07:34:14;26.65;;;10.48;;
13269;SDS011;6703;51.994;7.570;2023-03-01T07:36:42;26.42;;;9.80;;
13269;SDS011;6703;51.994;7.570;2023-03-01T07:39:11;20.45;;;9.15;;
13269;SDS011;6703;51.994;7.570;2023-03-01T07:41:39;22.88;;;9.90;;
13269;SDS011;6703;51.994;7.570;2023-03-01T07:44:07;21.35;;;10.07;;
13269;SDS011;6703;51.994;7.570;2023-03-01T07:46:36;19.33;;;8.63;;
13269;SDS011;6703;51.994;7.570;2023-03-01T07:49:04;23.88;;;9.80;;
13269;SDS011;6703;51.994;7.570;2023-03-01T07:51:32;19.13;;;9.07;;
13269;SDS011;6703;51.994;7.570;2023-03-01T07:54:00;20.25;;;9.25;;
13269;SDS011;6703;51.994;7.570;2023-03-01T07:56:27;18.05;;;8.93;;
13269;SDS011;6703;51.994;7.570;2023-03-01T07:58:56;18.17;;;8.38;;
13269;SDS011;6703;51.994;7.570;2023-03-01T08:01:23;19.25;;;8.50;;
13269;SDS011;6703;51.994;7.570;2023-03-01T08:03:52;18.70;;;8.30;;
13269;SDS011;6703;51.994;7.570;2023-03-01T08:06:20;18.20;;;8.05;;
13269;SDS011;6703;51.994;7.570;2023-03-01T08:08:48;22.87;;;8.17;;
13269;SDS011;6703;51.994;7.570;2023-03-01T08:11:16;16.23;;;7.57;;
13269;SDS011;6703;51.994;7.570;2023-03-01T08:13:43;18.30;;;8.43;;
13269;SDS011;6703;51.994;7.570;2023-03-01T08:16:12;23.13;;;8.07;;
13269;SDS011;6703;51.994;7.570;2023-03-01T08:18:43;21.88;;;8.43;;
13269;SDS011;6703;51.994;7.570;2023-03-01T08:21:12;20.33;;;8.18;;
13269;SDS011;6703;51.994;7.570;2023-03-01T08:23:42;15.98;;;8.20;;
13269;SDS011;6703;51.994;7.570;2023-03-01T08:26:11;17.20;;;7.53;;
13269;SDS011;6703;51.994;7.570;2023-03-01T08:28:39;16.10;;;7.70;;
13269;SDS011;6703;51.994;7.570;2023-03-01T08:31:14;17.50;;;8.35;;
13269;SDS011;6703;51.994;7.570;2023-03-01T08:33:43;16.13;;;8.07;;
13269;SDS011;6703;51.994;7.570;2023-03-01T08:36:12;18.27;;;7.97;;
13269;SDS011;6703;51.994;7.570;2023-03-01T08:38:40;18.70;;;8.02;;
13269;SDS011;6703;51.994;7.570;2023-03-01T08:41:07;16.67;;;7.80;;
13269;SDS011;6703;51.994;7.570;2023-03-01T08:43:35;17.30;;;7.37;;
13269;SDS011;6703;51.994;7.570;2023-03-01T08:46:03;15.32;;;7.10;;
13269;SDS011;6703;51.994;7.570;2023-03-01T08:48:31;17.88;;;7.40;;
13269;SDS011;6703;51.994;7.570;2023-03-01T08:51:06;18.55;;;7.80;;
13269;SDS011;6703;51.994;7.570;2023-03-01T08:53:36;18.80;;;8.05;;
13269;SDS011;6703;51.994;7.570;2023-03-01T08:56:04;18.20;;;6.88;;
13269;SDS011;6703;51.994;7.570;2023-03-01T08:58:32;17.63;;;7.13;;
13269;SDS011;6703;51.994;7.570;2023-03-01T09:01:00;18.45;;;7.07;;
13269;SDS011;6703;51.994;7.570;2023-03-01T09:03:28;20.38;;;7.72;;
13269;SDS011;6703;51.994;7.570;2023-03-01T09:05:59;17.42;;;7.93;;
13269;SDS011;6703;51.994;7.570;2023-03-01T09:08:28;21.25;;;8.18;;
13269;SDS011;6703;51.994;7.570;2023-03-01T09:10:57;16.77;;;8.07;;
13269;SDS011;6703;51.994;7.570;2023-03-01T09:13:25;18.35;;;8.30;;
13269;SDS011;6703;51.994;7.570;2023-03-01T09:15:57;18.58;;;8.25;;
13269;SDS011;6703;51.994;7.570;2023-03-01T09:18:25;16.83;;;8.05;;
13269;SDS011;6703;51.994;7.570;2023-03-01T09:20:52;20.38;;;8.00;;
13269;SDS011;6703;51.994;7.570;2023-03-01T09:23:22;23.17;;;8.53;;
13269;SDS011;6703;51.994;7.570;2023-03-01T09:25:49;20.27;;;7.47;;
13269;SDS011;6703;51.994;7.570;2023-03-01T09:28:19;18.23;;;7.35;;
13269;SDS011;6703;51.994;7.570;2023-03-01T09:30:57;15.55;;;6.90;;
13269;SDS011;6703;51.994;7.570;2023-03-01T09:33:25;18.08;;;7.47;;
13269;SDS011;6703;51.994;7.570;2023-03-01T09:35:55;17.55;;;7.47;;
13269;SDS011;6703;51.994;7.570;2023-03-01T09:38:24;15.43;;;7.07;;
13269;SDS011;6703;51.994;7.570;2023-03-01T09:40:52;16.38;;;6.88;;
13269;SDS011;6703;51.994;7.570;2023-03-01T09:43:23;15.52;;;7.03;;
13269;SDS011;6703;51.994;7.570;2023-03-01T09:45:53;13.90;;;6.70;;
13269;SDS011;6703;51.994;7.570;2023-03-01T09:48:24;16.90;;;6.95;;
13269;SDS011;6703;51.994;7.570;2023-03-01T09:50:53;13.70;;;6.60;;
13269;SDS011;6703;51.994;7.570;2023-03-01T09:53:22;20.02;;;7.32;;
13269;SDS011;6703;51.994;7.570;2023-03-01T09:55:53;18.08;;;6.95;;
13269;SDS011;6703;51.994;7.570;2023-03-01T09:58:29;14.93;;;6.40;;
13269;SDS011;6703;51.994;7.570;2023-03-01T10:01:02;17.00;;;7.05;;
13269;SDS011;6703;51.994;7.570;2023-03-01T10:03:39;17.52;;;7.00;;
13269;SDS011;6703;51.994;7.570;2023-03-01T10:06:10;15.65;;;6.72;;
13269;SDS011;6703;51.994;7.570;2023-03-01T10:09:00;15.60;;;6.30;;
13269;SDS011;6703;51.994;7.570;2023-03-01T10:11:30;16.73;;;6.78;;
13269;SDS011;6703;51.994;7.570;2023-03-01T10:14:01;14.43;;;6.75;;
13269;SDS011;6703;51.994;7.570;2023-03-01T10:16:34;17.33;;;6.32;;
13269;SDS011;6703;51.994;7.570;2023-03-01T10:19:06;18.20;;;6.78;;
13269;SDS011;6703;51.994;7.570;2023-03-01T10:21:40;13.43;;;6.50;;
13269;SDS011;6703;51.994;7.570;2023-03-01T10:24:12;15.93;;;6.43;;
13269;SDS011;6703;51.994;7.570;2023-03-01T10:26:48;13.90;;;6.50;;
13269;SDS011;6703;51.994;7.570;2023-03-01T10:29:22;19.27;;;7.47;;
13269;SDS011;6703;51.994;7.570;2023-03-01T10:31:52;17.02;;;7.05;;
13269;SDS011;6703;51.994;7.570;2023-03-01T10:34:22;14.88;;;6.97;;
13269;SDS011;6703;51.994;7.570;2023-03-01T10:36:55;13.93;;;6.45;;
13269;SDS011;6703;51.994;7.570;2023-03-01T10:39:25;15.07;;;6.50;;
13269;SDS011;6703;51.994;7.570;2023-03-01T10:41:57;17.63;;;7.47;;
13269;SDS011;6703;51.994;7.570;2023-03-01T10:44:36;16.25;;;6.78;;
13269;SDS011;6703;51.994;7.570;2023-03-01T10:47:12;14.02;;;6.28;;
13269;SDS011;6703;51.994;7.570;2023-03-01T10:49:51;13.18;;;6.28;;
13269;SDS011;6703;51.994;7.570;2023-03-01T10:52:21;13.48;;;6.03;;
13269;SDS011;6703;51.994;7.570;2023-03-01T10:54:51;15.43;;;7.05;;
13269;SDS011;6703;51.994;7.570;2023-03-01T10:57:31;11.38;;;5.40;;
13269;SDS011;6703;51.994;7.570;2023-03-01T11:00:18;16.48;;;6.47;;
13269;SDS011;6703;51.994;7.570;2023-03-01T11:02:49;13.85;;;6.25;;
13269;SDS011;6703;51.994;7.570;2023-03-01T11:05:20;12.98;;;6.32;;
13269;SDS011;6703;51.994;7.570;2023-03-01T11:07:51;13.70;;;6.32;;
13269;SDS011;6703;51.994;7.570;2023-03-01T11:10:21;16.13;;;6.70;;
13269;SDS011;6703;51.994;7.570;2023-03-01T11:12:50;13.52;;;6.10;;
13269;SDS011;6703;51.994;7.570;2023-03-01T11:15:22;17.77;;;7.00;;
13269;SDS011;6703;51.994;7.570;2023-03-01T11:17:52;12.77;;;5.53;;
13269;SDS011;6703;51.994;7.570;2023-03-01T11:20:34;14.35;;;6.10;;
13269;SDS011;6703;51.994;7.570;2023-03-01T11:23:04;15.70;;;7.07;;
13269;SDS011;6703;51.994;7.570;2023-03-01T11:25:36;16.02;;;6.38;;
13269;SDS011;6703;51.994;7.570;2023-03-01T11:28:06;14.93;;;6.65;;
13269;SDS011;6703;51.994;7.570;2023-03-01T11:30:40;15.30;;;6.47;;
13269;SDS011;6703;51.994;7.570;2023-03-01T11:33:20;14.30;;;6.20;;
13269;SDS011;6703;51.994;7.570;2023-03-01T11:36:00;13.02;;;5.78;;
13269;SDS011;6703;51.994;7.570;2023-03-01T11:38:31;14.68;;;6.05;;
13269;SDS011;6703;51.994;7.570;2023-03-01T11:41:04;14.57;;;6.00;;
13269;SDS011;6703;51.994;7.570;2023-03-01T11:43:36;14.77;;;6.28;;
13269;SDS011;6703;51.994;7.570;2023-03-01T11:46:22;14.18;;;5.93;;
13269;SDS011;6703;51.994;7.570;2023-03-01T11:49:04;13.55;;;6.50;;
13269;SDS011;6703;51.994;7.570;2023-03-01T11:51:41;14.10;;;6.63;;
13269;SDS011;6703;51.994;7.570;2023-03-01T11:54:21;13.63;;;5.93;;
13269;SDS011;6703;51.994;7.570;2023-03-01T11:56:57;12.25;;;5.75;;
13269;SDS011;6703;51.994;7.570;2023-03-01T11:59:32;13.10;;;5.95;;
13269;SDS011;6703;51.994;7.570;2023-03-01T12:02:16;12.02;;;5.88;;
13269;SDS011;6703;51.994;7.570;2023-03-01T12:05:02;12.77;;;5.63;;
13269;SDS011;6703;51.994;7.570;2023-03-01T12:07:45;12.05;;;5.20;;
13269;SDS011;6703;51.994;7.570;2023-03-01T12:10:19;13.20;;;6.05;;
13269;SDS011;6703;51.994;7.570;2023-03-01T12:13:03;11.80;;;5.28;;
13269;SDS011;6703;51.994;7.570;2023-03-01T12:15:39;13.55;;;6.03;;
13269;SDS011;6703;51.994;7.570;2023-03-01T12:18:24;10.95;;;5.18;;
13269;SDS011;6703;51.994;7.570;2023-03-01T12:21:02;12.43;;;5.80;;
13269;SDS011;6703;51.994;7.570;2023-03-01T12:23:42;12.70;;;5.65;;
13269;SDS011;6703;51.994;7.570;2023-03-01T12:26:35;11.43;;;5.45;;
13269;SDS011;6703;51.994;7.570;2023-03-01T12:29:16;12.87;;;5.97;;
13269;SDS011;6703;51.994;7.570;2023-03-01T12:32:00;12.93;;;5.10;;
13269;SDS011;6703;51.994;7.570;2023-03-01T12:34:42;12.20;;;5.32;;
13269;SDS011;6703;51.994;7.570;2023-03-01T12:37:29;10.90;;;5.00;;
13269;SDS011;6703;51.994;7.570;2023-03-01T12:40:11;11.48;;;4.88;;
13269;SDS011;6703;51.994;7.570;2023-03-01T12:42:47;10.50;;;4.82;;
13269;SDS011;6703;51.994;7.570;2023-03-01T12:45:27;11.70;;;5.85;;
13269;SDS011;6703;51.994;7.570;2023-03-01T12:48:05;11.05;;;5.30;;
13269;SDS011;6703;51.994;7.570;2023-03-01T12:50:41;10.50;;;4.43;;
13269;SDS011;6703;51.994;7.570;2023-03-01T12:53:15;8.27;;;4.30;;
13269;SDS011;6703;51.994;7.570;2023-03-01T12:55:49;9.37;;;4.17;;
13269;SDS011;6703;51.994;7.570;2023-03-01T12:58:20;9.13;;;4.60;;
13269;SDS011;6703;51.994;7.570;2023-03-01T13:01:08;10.35;;;4.35;;
13269;SDS011;6703;51.994;7.570;2023-03-01T13:03:50;8.88;;;3.75;;
13269;SDS011;6703;51.994;7.570;2023-03-01T13:06:30;12.95;;;4.78;;
13269;SDS011;6703;51.994;7.570;2023-03-01T13:09:11;7.87;;;4.00;;
13269;SDS011;6703;51.994;7.570;2023-03-01T13:11:42;8.80;;;4.15;;
13269;SDS011;6703;51.994;7.570;2023-03-01T13:17:04;10.63;;;3.70;;
13269;SDS011;6703;51.994;7.570;2023-03-01T13:19:31;10.60;;;3.95;;
13269;SDS011;6703;51.994;7.570;2023-03-01T13:22:25;9.68;;;4.22;;
13269;SDS011;6703;51.994;7.570;2023-03-01T13:25:00;7.88;;;3.97;;
13269;SDS011;6703;51.994;7.570;2023-03-01T13:27:29;8.17;;;3.70;;
13269;SDS011;6703;51.994;7.570;2023-03-01T13:29:59;9.23;;;4.07;;
13269;SDS011;6703;51.994;7.570;2023-03-01T13:32:32;7.05;;;3.50;;
13269;SDS011;6703;51.994;7.570;2023-03-01T13:41:12;8.57;;;3.95;;
13269;SDS011;6703;51.994;7.570;2023-03-01T13:43:41;9.00;;;3.83;;
13269;SDS011;6703;51.994;7.570;2023-03-01T13:46:11;8.80;;;4.22;;
13269;SDS011;6703;51.994;7.570;2023-03-01T13:48:45;11.25;;;4.20;;
13269;SDS011;6703;51.994;7.570;2023-03-01T13:51:19;9.20;;;4.10;;
13269;SDS011;6703;51.994;7.570;2023-03-01T13:53:50;10.68;;;3.88;;
13269;SDS011;6703;51.994;7.570;2023-03-01T13:56:20;9.48;;;4.50;;
13269;SDS011;6703;51.994;7.570;2023-03-01T13:58:50;9.13;;;4.50;;
13269;SDS011;6703;51.994;7.570;2023-03-01T14:01:21;12.00;;;4.80;;
13269;SDS011;6703;51.994;7.570;2023-03-01T14:03:51;9.80;;;4.40;;
13269;SDS011;6703;51.994;7.570;2023-03-01T14:06:21;8.93;;;4.28;;
13269;SDS011;6703;51.994;7.570;2023-03-01T14:09:00;11.18;;;4.30;;
13269;SDS011;6703;51.994;7.570;2023-03-01T14:11:46;9.60;;;4.40;;
13269;SDS011;6703;51.994;7.570;2023-03-01T14:14:29;8.57;;;4.43;;
13269;SDS011;6703;51.994;7.570;2023-03-01T14:17:05;9.17;;;4.00;;
13269;SDS011;6703;51.994;7.570;2023-03-01T14:19:41;10.50;;;4.18;;
13269;SDS011;6703;51.994;7.570;2023-03-01T14:22:13;8.85;;;4.20;;
13269;SDS011;6703;51.994;7.570;2023-03-01T14:24:47;7.90;;;3.88;;
13269;SDS011;6703;51.994;7.570;2023-03-01T14:27:17;6.25;;;3.53;;
13269;SDS011;6703;51.994;7.570;2023-03-01T14:29:53;7.35;;;3.78;;
13269;SDS011;6703;51.994;7.570;2023-03-01T14:32:24;7.57;;;4.00;;
13269;SDS011;6703;51.994;7.570;2023-03-01T14:34:53;8.68;;;3.95;;
13269;SDS011;6703;51.994;7.570;2023-03-01T14:37:22;7.30;;;3.60;;
13269;SDS011;6703;51.994;7.570;2023-03-01T14:39:52;9.35;;;3.90;;
13269;SDS011;6703;51.994;7.570;2023-03-01T14:42:20;6.53;;;3.67;;
13269;SDS011;6703;51.994;7.570;2023-03-01T14:44:50;7.03;;;3.55;;
13269;SDS011;6703;51.994;7.570;2023-03-01T14:47:20;7.82;;;3.50;;
13269;SDS011;6703;51.994;7.570;2023-03-01T14:49:54;8.00;;;3.33;;
13269;SDS011;6703;51.994;7.570;2023-03-01T14:52:25;7.05;;;3.40;;
13269;SDS011;6703;51.994;7.570;2023-03-01T14:55:02;7.90;;;3.65;;
13269;SDS011;6703;51.994;7.570;2023-03-01T14:57:31;8.25;;;3.17;;
13269;SDS011;6703;51.994;7.570;2023-03-01T14:59:59;6.22;;;3.00;;
13269;SDS011;6703;51.994;7.570;2023-03-01T15:02:31;8.65;;;3.47;;
13269;SDS011;6703;51.994;7.570;2023-03-01T15:05:00;6.43;;;3.20;;
13269;SDS011;6703;51.994;7.570;2023-03-01T15:07:35;8.27;;;3.30;;
13269;SDS011;6703;51.994;7.570;2023-03-01T15:10:14;6.30;;;3.20;;
13269;SDS011;6703;51.994;7.570;2023-03-01T15:12:45;5.23;;;3.27;;
13269;SDS011;6703;51.994;7.570;2023-03-01T15:15:21;8.02;;;3.92;;
13269;SDS011;6703;51.994;7.570;2023-03-01T15:17:55;5.40;;;3.10;;
13269;SDS011;6703;51.994;7.570;2023-03-01T15:20:24;7.17;;;3.70;;
13269;SDS011;6703;51.994;7.570;2023-03-01T15:22:55;6.32;;;3.20;;